createdAt,value
2023-01-08T00:01:23.275Z,7.57
2023-01-08T00:03:50.766Z,7.46
2023-01-08T00:06:22.076Z,7.51
2023-01-08T00:08:50.464Z,7.54
2023-01-08T00:11:18.303Z,7.59
2023-01-08T00:13:47.850Z,7.55
2023-01-08T00:16:17.602Z,7.54
2023-01-08T00:18:45.909Z,7.52
2023-01-08T00:21:13.262Z,7.50
2023-01-08T00:23:40.196Z,7.36
2023-01-08T00:26:11.457Z,7.47
2023-01-08T00:28:39.334Z,7.45
2023-01-08T00:31:12.624Z,7.41
2023-01-08T00:33:41.105Z,7.46
2023-01-08T00:36:17.577Z,7.43
2023-01-08T00:38:46.546Z,7.46
2023-01-08T00:41:15.879Z,7.46
2023-01-08T00:43:43.301Z,7.48
2023-01-08T00:46:13.795Z,7.48
2023-01-08T00:48:40.820Z,7.48
2023-01-08T00:51:09.226Z,7.61
2023-01-08T00:53:52.753Z,7.66
2023-01-08T00:56:20.511Z,7.66
2023-01-08T00:58:47.766Z,7.71
2023-01-08T01:01:16.172Z,7.85
2023-01-08T01:03:43.877Z,7.72
2023-01-08T01:06:13.484Z,7.78
2023-01-08T01:08:40.794Z,7.78
2023-01-08T01:11:28.246Z,7.79
2023-01-08T01:13:57.381Z,7.82
2023-01-08T01:16:25.461Z,7.90
2023-01-08T01:18:53.835Z,7.92
2023-01-08T01:21:25.967Z,7.89
2023-01-08T01:23:59.039Z,7.80
2023-01-08T01:26:27.632Z,7.77
2023-01-08T01:28:57.023Z,7.86
2023-01-08T01:31:27.013Z,7.93
2023-01-08T01:33:54.400Z,7.94
2023-01-08T01:36:23.835Z,7.90
2023-01-08T01:38:53.998Z,8.00
2023-01-08T01:41:31.474Z,8.04
2023-01-08T01:44:20.719Z,7.95
2023-01-08T01:46:49.509Z,7.94
2023-01-08T01:49:23.106Z,7.99
2023-01-08T01:52:02.291Z,7.97
2023-01-08T01:54:32.824Z,7.95
2023-01-08T01:57:01.056Z,7.99
2023-01-08T01:59:31.634Z,7.95
2023-01-08T02:01:59.639Z,7.87
2023-01-08T02:04:32.194Z,7.92
2023-01-08T02:07:30.146Z,7.94
2023-01-08T02:10:14.990Z,7.93
2023-01-08T02:12:47.167Z,7.94
2023-01-08T02:15:35.050Z,7.92
2023-01-08T02:18:48.430Z,7.86
2023-01-08T02:21:41.196Z,7.84
2023-01-08T02:24:43.754Z,7.85
2023-01-08T02:27:13.206Z,7.85
2023-01-08T02:29:41.936Z,7.84
2023-01-08T02:32:09.427Z,7.86
2023-01-08T02:34:36.572Z,7.85
2023-01-08T02:37:04.157Z,7.82
2023-01-08T02:39:59.924Z,7.81
2023-01-08T02:42:46.767Z,7.75
2023-01-08T02:45:44.915Z,7.76
2023-01-08T02:48:17.517Z,7.66
2023-01-08T02:50:59.784Z,7.71
2023-01-08T02:53:59.178Z,7.78
2023-01-08T02:56:33.346Z,7.78
2023-01-08T02:59:02.855Z,7.74
2023-01-08T03:01:31.183Z,7.75
2023-01-08T03:04:06.601Z,7.89
2023-01-08T03:06:33.797Z,7.92
2023-01-08T03:09:01.971Z,7.83
2023-01-08T03:11:40.952Z,7.89
2023-01-08T03:14:17.236Z,7.95
2023-01-08T03:16:59.050Z,7.92
2023-01-08T03:19:38.051Z,7.87
2023-01-08T03:22:11.507Z,7.83
2023-01-08T03:24:41.236Z,7.84
2023-01-08T03:27:13.024Z,7.91
2023-01-08T03:29:41.489Z,7.89
2023-01-08T03:32:15.426Z,7.86
2023-01-08T03:34:46.224Z,7.95
2023-01-08T03:37:16.648Z,7.89
2023-01-08T03:40:05.611Z,7.91
2023-01-08T03:42:34.660Z,7.84
2023-01-08T03:45:02.556Z,7.93
2023-01-08T03:47:31.858Z,7.91
2023-01-08T03:50:05.514Z,7.90
2023-01-08T03:52:33.306Z,7.89
2023-01-08T03:55:00.538Z,7.89
2023-01-08T03:57:27.663Z,7.86
2023-01-08T03:59:54.629Z,7.73
2023-01-08T04:02:22.216Z,7.80
2023-01-08T04:04:49.486Z,7.73
2023-01-08T04:07:16.678Z,7.88
2023-01-08T04:09:43.800Z,7.83
2023-01-08T04:12:10.803Z,7.90
2023-01-08T04:14:37.740Z,7.78
2023-01-08T04:17:04.719Z,7.85
2023-01-08T04:19:31.700Z,7.87
2023-01-08T04:21:58.776Z,7.68
2023-01-08T04:24:25.900Z,7.65
2023-01-08T04:26:53.167Z,7.81
2023-01-08T04:29:20.232Z,7.83
2023-01-08T04:31:47.515Z,7.80
2023-01-08T04:34:14.689Z,7.89
2023-01-08T04:36:42.574Z,7.82
2023-01-08T04:39:11.758Z,7.82
2023-01-08T04:41:38.901Z,7.68
2023-01-08T04:44:05.944Z,7.80
2023-01-08T04:46:33.135Z,7.77
2023-01-08T04:49:00.437Z,7.77
2023-01-08T04:51:27.615Z,7.79
2023-01-08T04:53:54.727Z,7.74
2023-01-08T04:56:21.974Z,7.72
2023-01-08T04:58:49.841Z,7.82
2023-01-08T05:01:24.416Z,7.70
2023-01-08T05:04:01.551Z,7.75
2023-01-08T05:06:30.822Z,7.70
2023-01-08T05:08:58.571Z,7.66
2023-01-08T05:11:26.418Z,7.65
2023-01-08T05:13:54.492Z,7.59
2023-01-08T05:16:21.654Z,7.58
2023-01-08T05:18:49.166Z,7.63
2023-01-08T05:21:17.092Z,7.65
2023-01-08T05:23:48.358Z,7.61
2023-01-08T05:26:16.890Z,7.64
2023-01-08T05:28:43.976Z,7.57
2023-01-08T05:31:11.758Z,7.56
2023-01-08T05:33:39.742Z,7.55
2023-01-08T05:36:09.686Z,7.68
2023-01-08T05:38:37.415Z,7.67
2023-01-08T05:41:05.368Z,7.68
2023-01-08T05:43:32.945Z,7.66
2023-01-08T05:46:01.422Z,7.68
2023-01-08T05:48:33.421Z,7.65
2023-01-08T05:51:00.595Z,7.65
2023-01-08T05:53:32.095Z,7.68
2023-01-08T05:56:07.712Z,7.63
2023-01-08T05:58:36.355Z,7.65
2023-01-08T06:01:10.819Z,7.61
2023-01-08T06:03:38.604Z,7.63
2023-01-08T06:06:07.758Z,7.72
2023-01-08T06:08:35.391Z,7.78
2023-01-08T06:11:06.375Z,7.78
2023-01-08T06:13:35.343Z,7.77
2023-01-08T06:16:02.799Z,7.78
2023-01-08T06:18:30.515Z,7.94
2023-01-08T06:21:00.739Z,7.96
2023-01-08T06:23:28.028Z,7.88
2023-01-08T06:26:00.712Z,7.87
2023-01-08T06:28:27.959Z,7.86
2023-01-08T06:30:57.688Z,7.87
2023-01-08T06:33:25.009Z,7.88
2023-01-08T06:35:52.058Z,7.97
2023-01-08T06:38:19.546Z,8.01
2023-01-08T06:40:50.810Z,8.09
2023-01-08T06:43:18.744Z,8.05
2023-01-08T06:45:52.667Z,8.06
2023-01-08T06:48:19.789Z,8.01
2023-01-08T06:50:46.929Z,8.04
2023-01-08T06:53:13.862Z,8.05
2023-01-08T06:55:40.789Z,8.14
2023-01-08T06:58:07.837Z,8.17
2023-01-08T07:00:35.061Z,8.13
2023-01-08T07:03:02.173Z,8.07
2023-01-08T07:05:29.360Z,8.03
2023-01-08T07:07:56.528Z,8.05
2023-01-08T07:10:23.964Z,8.06
2023-01-08T07:12:50.874Z,8.08
2023-01-08T07:15:18.345Z,8.17
2023-01-08T07:17:45.508Z,8.13
2023-01-08T07:20:12.529Z,8.12
2023-01-08T07:22:39.564Z,8.09
2023-01-08T07:25:07.794Z,8.17
2023-01-08T07:27:34.948Z,8.29
2023-01-08T07:30:02.613Z,8.22
2023-01-08T07:32:30.849Z,8.27
2023-01-08T07:34:59.206Z,8.18
2023-01-08T07:37:26.905Z,8.18
2023-01-08T07:39:53.982Z,8.14
2023-01-08T07:42:21.163Z,8.12
2023-01-08T07:44:48.226Z,8.16
2023-01-08T07:47:15.216Z,8.23
2023-01-08T07:49:42.488Z,8.18
2023-01-08T07:52:09.617Z,8.17
2023-01-08T07:54:36.570Z,8.23
2023-01-08T07:57:03.694Z,8.28
2023-01-08T07:59:30.663Z,8.19
2023-01-08T08:01:57.757Z,8.19
2023-01-08T08:04:25.371Z,8.22
2023-01-08T08:06:56.470Z,8.33
2023-01-08T08:09:23.938Z,8.25
2023-01-08T08:11:50.956Z,8.23
2023-01-08T08:14:18.148Z,8.23
2023-01-08T08:16:45.301Z,8.25
2023-01-08T08:19:12.998Z,8.26
2023-01-08T08:21:40.000Z,8.22
2023-01-08T08:24:07.646Z,8.24
2023-01-08T08:26:37.586Z,8.27
2023-01-08T08:29:05.178Z,8.23
2023-01-08T08:31:32.418Z,8.38
2023-01-08T08:34:02.384Z,8.45
2023-01-08T08:36:30.264Z,8.42
2023-01-08T08:38:57.353Z,8.51
2023-01-08T08:41:27.425Z,8.58
2023-01-08T08:43:54.584Z,8.51
2023-01-08T08:46:21.672Z,8.60
2023-01-08T08:48:49.533Z,8.60
2023-01-08T08:51:16.629Z,8.59
2023-01-08T08:53:43.824Z,8.60
2023-01-08T08:56:10.773Z,8.58
2023-01-08T08:58:37.995Z,8.65
2023-01-08T09:01:08.110Z,8.61
2023-01-08T09:03:35.520Z,8.59
2023-01-08T09:06:06.054Z,8.69
2023-01-08T09:08:33.069Z,8.67
2023-01-08T09:11:02.173Z,8.77
2023-01-08T09:13:29.499Z,8.76
2023-01-08T09:15:59.357Z,8.76
2023-01-08T09:18:26.892Z,8.76
2023-01-08T09:20:54.517Z,8.82
2023-01-08T09:23:24.495Z,8.85
2023-01-08T09:26:01.329Z,8.86
2023-01-08T09:28:29.273Z,8.80
2023-01-08T09:30:57.246Z,8.92
2023-01-08T09:33:25.305Z,8.86
2023-01-08T09:35:52.619Z,8.85
2023-01-08T09:38:19.775Z,8.88
2023-01-08T09:41:04.294Z,8.98
2023-01-08T09:43:35.691Z,8.97
2023-01-08T09:46:08.048Z,9.03
2023-01-08T09:48:39.104Z,9.06
2023-01-08T09:51:14.653Z,9.13
2023-01-08T09:53:45.023Z,9.17
2023-01-08T09:56:18.704Z,9.22
2023-01-08T09:58:56.527Z,9.26
2023-01-08T10:01:35.619Z,9.25
2023-01-08T10:04:25.471Z,9.23
2023-01-08T10:07:10.405Z,9.29
2023-01-08T10:09:37.582Z,9.26
2023-01-08T10:12:06.366Z,9.27
2023-01-08T10:14:40.039Z,9.27
2023-01-08T10:17:38.535Z,9.32
2023-01-08T10:20:23.239Z,9.36
2023-01-08T10:22:54.473Z,9.43
2023-01-08T10:25:25.665Z,9.46
2023-01-08T10:27:58.853Z,9.56
2023-01-08T10:30:39.877Z,9.61
2023-01-08T10:33:25.026Z,9.65
2023-01-08T10:36:08.246Z,9.70
2023-01-08T10:39:03.519Z,9.64
2023-01-08T10:41:31.397Z,9.78
2023-01-08T10:44:05.996Z,9.89
2023-01-08T10:46:48.496Z,9.97
2023-01-08T10:49:39.217Z,10.08
2023-01-08T10:52:21.949Z,10.09
2023-01-08T10:54:49.482Z,10.09
2023-01-08T10:57:31.068Z,10.16
2023-01-08T10:59:58.051Z,10.26
2023-01-08T11:02:39.376Z,10.24
2023-01-08T11:05:11.645Z,10.27
2023-01-08T11:07:40.480Z,10.22
2023-01-08T11:10:24.316Z,10.34
2023-01-08T11:13:00.982Z,10.48
2023-01-08T11:15:41.826Z,10.58
2023-01-08T11:18:24.638Z,10.55
2023-01-08T11:20:54.350Z,10.60
2023-01-08T11:23:24.239Z,10.73
2023-01-08T11:26:08.543Z,10.72
2023-01-08T11:29:11.607Z,10.88
2023-01-08T11:32:03.151Z,10.81
2023-01-08T11:35:01.184Z,10.87
2023-01-08T11:38:04.583Z,10.93
2023-01-08T11:40:31.706Z,10.91
2023-01-08T11:43:41.887Z,11.07
2023-01-08T11:46:33.264Z,11.20
2023-01-08T11:49:37.418Z,11.40
2023-01-08T11:52:07.231Z,11.30
2023-01-08T11:54:59.878Z,11.28
2023-01-08T11:57:57.797Z,11.29
2023-01-08T12:00:55.593Z,11.33
2023-01-08T12:03:41.973Z,11.40
2023-01-08T12:06:27.706Z,11.39
2023-01-08T12:09:28.596Z,11.52
2023-01-08T12:12:02.440Z,11.71
2023-01-08T12:14:50.988Z,11.74
2023-01-08T12:17:39.915Z,11.67
2023-01-08T12:20:27.741Z,11.60
2023-01-08T12:23:22.680Z,11.51
2023-01-08T12:26:18.871Z,11.40
2023-01-08T12:29:37.899Z,11.32
2023-01-08T12:32:29.279Z,11.31
2023-01-08T12:35:03.027Z,11.34
2023-01-08T12:37:42.076Z,11.24
2023-01-08T12:40:24.875Z,11.22
2023-01-08T12:43:00.587Z,11.14
2023-01-08T12:45:40.660Z,11.15
2023-01-08T12:48:21.729Z,11.17
2023-01-08T12:51:28.789Z,11.05
2023-01-08T12:54:14.977Z,11.19
2023-01-08T12:57:13.786Z,11.20
2023-01-08T13:00:15.112Z,11.23
2023-01-08T13:02:59.897Z,11.28
2023-01-08T13:05:35.849Z,11.20
2023-01-08T13:08:05.719Z,11.15
2023-01-08T13:10:36.036Z,11.10
2023-01-08T13:13:06.073Z,11.09
2023-01-08T13:15:34.921Z,11.00
2023-01-08T13:18:21.798Z,11.00
2023-01-08T13:21:01.225Z,10.99
2023-01-08T13:23:35.426Z,10.96
2023-01-08T13:26:06.794Z,11.09
2023-01-08T13:28:45.290Z,11.17
2023-01-08T13:31:21.626Z,11.16
2023-01-08T13:33:52.566Z,11.14
2023-01-08T13:36:24.234Z,11.21
2023-01-08T13:39:12.199Z,11.20
2023-01-08T13:41:57.346Z,11.15
2023-01-08T13:44:36.534Z,11.12
2023-01-08T13:47:17.591Z,10.99
2023-01-08T13:49:53.276Z,11.01
2023-01-08T13:53:01.067Z,11.04
2023-01-08T13:55:39.643Z,11.16
2023-01-08T13:58:24.705Z,11.14
2023-01-08T14:00:55.595Z,11.26
2023-01-08T14:03:30.975Z,11.35
2023-01-08T14:06:25.093Z,11.49
2023-01-08T14:08:56.876Z,11.60
2023-01-08T14:11:38.045Z,11.72
2023-01-08T14:14:05.466Z,11.70
2023-01-08T14:16:33.530Z,11.63
2023-01-08T14:19:01.832Z,11.77
2023-01-08T14:21:29.864Z,11.84
2023-01-08T14:23:57.634Z,11.81
2023-01-08T14:26:36.941Z,11.79
2023-01-08T14:29:15.176Z,11.80
2023-01-08T14:31:58.689Z,11.74
2023-01-08T14:34:30.141Z,11.72
2023-01-08T14:36:57.775Z,11.65
2023-01-08T14:39:32.814Z,11.53
2023-01-08T14:42:29.175Z,11.48
2023-01-08T14:45:00.402Z,11.40
2023-01-08T14:47:43.159Z,11.32
2023-01-08T14:50:43.037Z,11.33
2023-01-08T14:53:43.007Z,11.40
2023-01-08T14:56:19.729Z,11.37
2023-01-08T14:58:47.568Z,11.42
2023-01-08T15:01:25.451Z,11.38
2023-01-08T15:04:04.871Z,11.25
2023-01-08T15:06:33.595Z,11.17
2023-01-08T15:09:01.351Z,11.10
2023-01-08T15:11:32.425Z,11.03
2023-01-08T15:13:59.592Z,10.93
2023-01-08T15:16:55.296Z,10.88
2023-01-08T15:19:29.336Z,10.84
2023-01-08T15:22:00.342Z,10.76
2023-01-08T15:24:41.717Z,10.86
2023-01-08T15:27:19.131Z,10.74
2023-01-08T15:29:52.777Z,10.75
2023-01-08T15:32:23.844Z,10.65
2023-01-08T15:34:50.931Z,10.58
2023-01-08T15:37:18.332Z,10.60
2023-01-08T15:39:45.638Z,10.52
2023-01-08T15:42:57.414Z,10.47
2023-01-08T15:45:32.592Z,10.46
2023-01-08T15:47:59.997Z,10.32
2023-01-08T15:50:28.518Z,10.34
2023-01-08T15:52:57.868Z,10.35
2023-01-08T15:55:26.065Z,10.28
2023-01-08T15:57:55.590Z,10.15
2023-01-08T16:00:23.170Z,10.08
2023-01-08T16:02:53.334Z,10.01
2023-01-08T16:05:23.461Z,9.96
2023-01-08T16:07:50.849Z,9.96
2023-01-08T16:10:18.549Z,9.93
2023-01-08T16:12:46.017Z,9.74
2023-01-08T16:15:15.265Z,9.68
2023-01-08T16:17:43.817Z,9.56
2023-01-08T16:20:14.648Z,9.51
2023-01-08T16:22:42.304Z,9.44
2023-01-08T16:25:10.115Z,9.39
2023-01-08T16:27:38.605Z,9.48
2023-01-08T16:30:12.317Z,9.41
2023-01-08T16:32:39.483Z,9.42
2023-01-08T16:35:07.634Z,9.42
2023-01-08T16:37:35.640Z,9.48
2023-01-08T16:40:03.583Z,9.34
2023-01-08T16:42:31.591Z,9.38
2023-01-08T16:44:58.607Z,9.41
2023-01-08T16:47:25.869Z,9.35
2023-01-08T16:49:53.078Z,9.33
2023-01-08T16:52:20.881Z,9.27
2023-01-08T16:54:48.650Z,9.17
2023-01-08T16:57:16.075Z,9.20
2023-01-08T16:59:43.995Z,9.11
2023-01-08T17:02:15.126Z,9.15
2023-01-08T17:04:46.650Z,9.05
2023-01-08T17:07:15.375Z,8.98
2023-01-08T17:09:44.903Z,8.98
2023-01-08T17:12:22.468Z,8.89
2023-01-08T17:14:51.007Z,8.82
2023-01-08T17:17:18.572Z,8.84
2023-01-08T17:19:46.782Z,8.79
2023-01-08T17:22:13.845Z,8.83
2023-01-08T17:24:41.044Z,8.81
2023-01-08T17:27:08.076Z,8.69
2023-01-08T17:29:37.765Z,8.74
2023-01-08T17:32:06.176Z,8.69
2023-01-08T17:34:33.792Z,8.70
2023-01-08T17:37:01.184Z,8.74
2023-01-08T17:39:29.354Z,8.69
2023-01-08T17:42:16.241Z,8.79
2023-01-08T17:44:47.178Z,8.76
2023-01-08T17:47:15.942Z,8.89
2023-01-08T17:49:43.936Z,8.85
2023-01-08T17:52:11.474Z,8.96
2023-01-08T17:54:40.034Z,9.01
2023-01-08T17:57:07.838Z,9.00
2023-01-08T17:59:37.520Z,9.04
2023-01-08T18:02:07.489Z,9.04
2023-01-08T18:04:37.106Z,8.94
2023-01-08T18:07:06.288Z,8.89
2023-01-08T18:09:39.517Z,8.89
2023-01-08T18:12:10.638Z,8.88
2023-01-08T18:14:44.287Z,8.87
2023-01-08T18:17:25.086Z,8.87
2023-01-08T18:20:08.391Z,8.73
2023-01-08T18:22:50.874Z,8.75
2023-01-08T18:25:19.123Z,8.83
2023-01-08T18:27:46.370Z,8.79
2023-01-08T18:30:13.797Z,8.81
2023-01-08T18:32:40.987Z,8.79
2023-01-08T18:35:08.796Z,8.78
2023-01-08T18:37:36.012Z,8.73
2023-01-08T18:40:04.344Z,8.72
2023-01-08T18:42:32.792Z,8.60
2023-01-08T18:45:00.857Z,8.61
2023-01-08T18:47:29.077Z,8.60
2023-01-08T18:49:59.104Z,8.64
2023-01-08T18:52:27.576Z,8.72
2023-01-08T18:54:54.966Z,8.79
2023-01-08T18:57:22.959Z,8.84
2023-01-08T18:59:50.607Z,8.89
2023-01-08T19:02:30.501Z,8.89
2023-01-08T19:04:57.795Z,8.84
2023-01-08T19:07:26.222Z,8.79
2023-01-08T19:09:53.576Z,8.84
2023-01-08T19:12:20.699Z,8.89
2023-01-08T19:14:48.959Z,8.89
2023-01-08T19:17:16.080Z,8.88
2023-01-08T19:19:43.474Z,8.89
2023-01-08T19:22:10.891Z,8.89
2023-01-08T19:24:38.207Z,8.88
2023-01-08T19:27:05.387Z,8.93
2023-01-08T19:29:32.613Z,8.84
2023-01-08T19:31:59.892Z,8.88
2023-01-08T19:34:27.213Z,8.96
2023-01-08T19:36:54.448Z,9.00
2023-01-08T19:39:22.692Z,9.07
2023-01-08T19:42:09.017Z,9.00
2023-01-08T19:44:36.664Z,8.98
2023-01-08T19:47:03.895Z,8.87
2023-01-08T19:49:34.015Z,9.01
2023-01-08T19:52:01.286Z,9.01
2023-01-08T19:54:29.491Z,9.00
2023-01-08T19:56:59.464Z,8.97
2023-01-08T19:59:29.184Z,8.91
2023-01-08T20:01:57.270Z,8.88
2023-01-08T20:04:26.086Z,8.95
2023-01-08T20:07:02.700Z,8.96
2023-01-08T20:09:43.072Z,8.82
2023-01-08T20:12:11.934Z,8.75
2023-01-08T20:14:39.784Z,8.90
2023-01-08T20:17:07.707Z,8.83
2023-01-08T20:19:44.587Z,8.84
2023-01-08T20:22:26.505Z,8.90
2023-01-08T20:25:00.493Z,8.83
2023-01-08T20:27:33.377Z,8.87
2023-01-08T20:30:01.781Z,8.91
2023-01-08T20:32:29.161Z,8.87
2023-01-08T20:34:56.705Z,8.91
2023-01-08T20:37:23.831Z,8.96
2023-01-08T20:39:51.719Z,8.94
2023-01-08T20:42:33.143Z,9.00
2023-01-08T20:45:00.926Z,8.95
2023-01-08T20:47:28.228Z,8.98
2023-01-08T20:49:55.395Z,8.96
2023-01-08T20:52:22.831Z,9.01
2023-01-08T20:54:50.903Z,8.93
2023-01-08T20:57:18.016Z,8.99
2023-01-08T20:59:45.336Z,8.98
2023-01-08T21:02:14.418Z,8.97
2023-01-08T21:04:43.743Z,8.89
2023-01-08T21:07:11.215Z,8.89
2023-01-08T21:09:40.255Z,8.92
2023-01-08T21:12:08.128Z,8.85
2023-01-08T21:14:35.424Z,8.91
2023-01-08T21:17:03.002Z,8.96
2023-01-08T21:19:31.213Z,8.98
2023-01-08T21:21:59.142Z,8.94
2023-01-08T21:24:27.557Z,8.98
2023-01-08T21:26:55.139Z,8.94
2023-01-08T21:29:23.728Z,8.89
2023-01-08T21:31:51.008Z,8.89
2023-01-08T21:34:20.590Z,8.94
2023-01-08T21:36:47.923Z,8.88
2023-01-08T21:39:15.480Z,8.87
2023-01-08T21:42:01.128Z,8.83
2023-01-08T21:44:46.959Z,8.87
2023-01-08T21:47:18.077Z,8.84
2023-01-08T21:50:01.363Z,8.87
2023-01-08T21:52:48.777Z,8.86
2023-01-08T21:55:17.337Z,8.83
2023-01-08T21:57:45.238Z,8.88
2023-01-08T22:00:17.106Z,8.95
2023-01-08T22:02:44.458Z,8.89
2023-01-08T22:05:12.483Z,9.01
2023-01-08T22:07:40.161Z,9.06
2023-01-08T22:10:08.793Z,9.02
2023-01-08T22:12:36.154Z,9.00
2023-01-08T22:15:05.073Z,8.92
2023-01-08T22:17:32.309Z,8.96
2023-01-08T22:20:01.500Z,8.92
2023-01-08T22:22:29.519Z,8.85
2023-01-08T22:24:56.719Z,8.84
2023-01-08T22:27:23.876Z,8.82
2023-01-08T22:29:50.870Z,8.86
2023-01-08T22:32:18.199Z,8.80
2023-01-08T22:34:47.760Z,8.74
2023-01-08T22:37:16.912Z,8.84
2023-01-08T22:39:45.219Z,8.89
2023-01-08T22:42:13.245Z,8.86
2023-01-08T22:44:40.459Z,8.85
2023-01-08T22:47:10.231Z,8.79
2023-01-08T22:49:38.478Z,8.83
2023-01-08T22:52:06.709Z,8.82
2023-01-08T22:54:34.229Z,8.88
2023-01-08T22:57:01.682Z,8.79
2023-01-08T22:59:28.740Z,8.87
2023-01-08T23:01:56.569Z,8.94
2023-01-08T23:04:24.827Z,8.88
2023-01-08T23:06:52.005Z,8.94
2023-01-08T23:09:19.195Z,8.87
2023-01-08T23:11:46.878Z,8.83
2023-01-08T23:14:16.353Z,8.92
2023-01-08T23:16:43.912Z,8.90
2023-01-08T23:19:11.391Z,8.83
2023-01-08T23:21:38.724Z,8.86
2023-01-08T23:24:11.230Z,8.74
2023-01-08T23:26:38.365Z,8.68
2023-01-08T23:29:05.689Z,8.76
2023-01-08T23:31:32.944Z,8.74
2023-01-08T23:34:02.507Z,8.79
2023-01-08T23:36:29.719Z,8.76
2023-01-08T23:38:57.587Z,8.73
2023-01-08T23:41:33.805Z,8.72
2023-01-08T23:44:11.441Z,8.65
2023-01-08T23:46:38.993Z,8.66
2023-01-08T23:49:07.446Z,8.63
2023-01-08T23:51:34.615Z,8.60
2023-01-08T23:54:01.839Z,8.72
2023-01-08T23:56:29.280Z,8.71
2023-01-08T23:59:00.563Z,8.69
